Time;durP1;ratioP1;P1;durP2;ratioP2;P2;SDS_P1;SDS_P2;PMS_P1;PMS_P2;Temp;Humidity;BMP_temperature;BMP_pressure;BME280_temperature;BME280_humidity;BME280_pressure;Samples;Min_cycle;Max_cycle;Signal;HPM_P1;HPM_P2
2022/05/03 00:01:32;;;;;;;;;;;;;;;11.69;68.75;99441.72;4880152;29;19933;-65
2022/05/03 00:04:07;;;;;;;;;;;;;;;11.54;68.82;99441.00;4883290;29;19972;-65
2022/05/03 00:06:42;;;;;;;;;;;;;;;11.45;68.97;99442.75;4883474;29;20038;-65
2022/05/03 00:09:13;;;;;;;;;;;;;;;11.41;69.32;99442.81;4883615;29;20014;-65
2022/05/03 00:11:46;;;;;;;;;;;;;;;11.38;69.39;99440.25;4883242;29;19924;-65
2022/05/03 00:14:21;;;;;;;;;;;;;;;11.34;69.72;99439.47;4882923;29;19955;-66
2022/05/03 00:16:50;;;;;;;;;;;;;;;11.33;69.77;99431.78;4883436;29;20304;-66
2022/05/03 00:19:19;;;;;;;;;;;;;;;11.39;69.91;99431.75;4883088;29;19972;-66
2022/05/03 00:21:48;;;;;;;;;;;;;;;11.42;69.91;99436.84;4883314;29;19931;-66
2022/05/03 00:24:19;;;;;;;;;;;;;;;11.43;69.31;99429.16;4883145;29;19923;-65
2022/05/03 00:26:48;;;;;;;;;;;;;;;11.43;69.31;99434.25;4882887;29;19932;-66
2022/05/03 00:29:17;;;;;;;;;;;;;;;11.44;69.01;99435.13;4883216;29;19924;-65
2022/05/03 00:31:46;;;;;;;;;;;;;;;11.53;69.33;99424.81;4883014;29;20027;-65
2022/05/03 00:34:16;;;;;;;;;;;;;;;11.60;69.21;99434.13;4882695;29;19924;-64
2022/05/03 00:36:45;;;;;;;;;;;;;;;11.69;68.79;99431.50;4882001;29;19972;-66
2022/05/03 00:39:14;;;;;;;;;;;;;;;11.72;68.49;99434.03;4882695;29;19927;-65
2022/05/03 00:41:46;;;;;;;;;;;;;;;11.71;68.33;99429.78;4883002;29;19930;-66
2022/05/03 00:47:05;;;;;;;;;;;;;;;11.75;68.12;99431.47;4882648;29;19988;-65
2022/05/03 00:49:39;;;;;;;;;;;;;;;11.73;67.85;99433.19;4882554;29;19924;-65
2022/05/03 00:52:15;;;;;;;;;;;;;;;11.72;67.87;99426.38;4882805;29;20371;-66
2022/05/03 00:54:48;;;;;;;;;;;;;;;11.64;67.76;99433.22;4882417;29;19923;-65
2022/05/03 00:57:27;;;;;;;;;;;;;;;11.57;67.82;99430.72;4882787;29;19963;-66
2022/05/03 01:00:03;;;;;;;;;;;;;;;11.53;67.53;99435.03;4882393;29;19928;-66
2022/05/03 01:02:39;;;;;;;;;;;;;;;11.31;67.53;99434.38;4882378;29;20362;-66
2022/05/03 01:05:10;;;;;;;;;;;;;;;10.88;68.07;99432.97;4882173;29;19959;-64
2022/05/03 01:07:43;;;;;;;;;;;;;;;10.62;68.96;99433.13;4882139;29;19929;-66
2022/05/03 01:10:17;;;;;;;;;;;;;;;10.51;69.33;99427.19;4882204;29;20378;-66
2022/05/03 01:12:55;;;;;;;;;;;;;;;10.47;69.36;99422.97;4881966;29;20359;-66
2022/05/03 01:15:24;;;;;;;;;;;;;;;10.29;70.03;99430.72;4882181;29;19923;-65
2022/05/03 01:18:00;;;;;;;;;;;;;;;10.29;70.21;99432.41;4880921;29;19923;-66
2022/05/03 01:20:31;;;;;;;;;;;;;;;10.34;71.32;99428.97;4882008;29;20022;-66
2022/05/03 01:23:17;;;;;;;;;;;;;;;10.44;70.88;99433.19;4882225;29;20298;-66
2022/05/03 01:25:56;;;;;;;;;;;;;;;10.55;70.82;99428.91;4881843;29;19924;-66
2022/05/03 01:28:32;;;;;;;;;;;;;;;10.65;70.77;99430.53;4882264;29;20286;-66
2022/05/03 01:31:05;;;;;;;;;;;;;;;10.71;70.55;99440.72;4881806;29;20307;-66
2022/05/03 01:33:38;;;;;;;;;;;;;;;10.77;70.78;99440.66;4881776;29;19954;-66
2022/05/03 01:36:07;;;;;;;;;;;;;;;10.77;70.12;99434.75;4882051;29;19924;-65
2022/05/03 01:38:43;;;;;;;;;;;;;;;10.84;70.15;99435.53;4881892;29;19991;-65
2022/05/03 01:41:28;;;;;;;;;;;;;;;10.89;70.05;99433.81;4882163;29;20382;-66
2022/05/03 01:44:10;;;;;;;;;;;;;;;10.94;69.83;99432.91;4881855;29;19924;-66
2022/05/03 01:46:40;;;;;;;;;;;;;;;11.01;69.32;99434.59;4881698;29;20279;-65
2022/05/03 01:52:12;;;;;;;;;;;;;;;11.10;69.75;99428.56;4881681;29;20389;-66
2022/05/03 01:54:57;;;;;;;;;;;;;;;11.17;69.52;99440.44;4881359;29;19976;-66
2022/05/03 01:57:29;;;;;;;;;;;;;;;11.18;69.57;99437.03;4881323;29;19923;-66
2022/05/03 02:00:03;;;;;;;;;;;;;;;11.27;69.05;99442.06;4881284;29;19975;-66
2022/05/03 02:03:02;;;;;;;;;;;;;;;11.33;69.08;99447.97;4881234;29;19933;-66
2022/05/03 02:05:41;;;;;;;;;;;;;;;11.38;68.99;99447.94;4877243;29;20018;-66
2022/05/03 02:08:11;;;;;;;;;;;;;;;11.39;68.88;99447.09;4881059;29;20005;-66
2022/05/03 02:10:47;;;;;;;;;;;;;;;11.36;68.92;99440.28;4881067;29;19927;-66
2022/05/03 02:13:28;;;;;;;;;;;;;;;11.32;68.98;99448.00;4881406;29;20286;-66
2022/05/03 02:16:03;;;;;;;;;;;;;;;11.27;69.50;99442.06;4881377;29;20370;-66
2022/05/03 02:18:38;;;;;;;;;;;;;;;11.11;70.43;99445.59;4881021;29;20370;-65
2022/05/03 02:21:14;;;;;;;;;;;;;;;11.08;70.54;99437.94;4881329;29;19927;-66
2022/05/03 02:23:49;;;;;;;;;;;;;;;11.08;70.60;99435.41;4880907;29;20006;-66
2022/05/03 02:26:30;;;;;;;;;;;;;;;11.05;71.08;99440.50;4880206;29;19924;-66
2022/05/03 02:29:03;;;;;;;;;;;;;;;11.02;71.35;99436.28;4880720;29;19923;-66
2022/05/03 02:31:36;;;;;;;;;;;;;;;11.05;71.80;99435.41;4881140;29;20030;-66
2022/05/03 02:34:17;;;;;;;;;;;;;;;11.09;71.42;99437.06;4881620;29;20363;-66
2022/05/03 02:36:55;;;;;;;;;;;;;;;11.12;71.74;99431.94;4881057;29;19970;-66
2022/05/03 02:39:27;;;;;;;;;;;;;;;11.13;71.93;99433.66;4880606;29;20385;-66
2022/05/03 02:41:58;;;;;;;;;;;;;;;11.22;71.54;99434.44;4880619;29;20382;-66
2022/05/03 02:44:28;;;;;;;;;;;;;;;11.23;71.55;99425.03;4880579;29;19924;-65
2022/05/03 02:47:06;;;;;;;;;;;;;;;11.28;71.86;99433.53;4880527;29;19979;-66
2022/05/03 02:49:50;;;;;;;;;;;;;;;11.30;71.80;99436.94;4880353;29;19924;-66
2022/05/03 02:52:24;;;;;;;;;;;;;;;11.34;71.72;99438.59;4880821;29;20014;-65
2022/05/03 02:54:58;;;;;;;;;;;;;;;11.44;71.41;99435.13;4880909;29;19949;-66
2022/05/03 02:57:32;;;;;;;;;;;;;;;11.53;70.97;99435.03;4880396;29;20043;-66
2022/05/03 03:02:44;;;;;;;;;;;;;;;11.67;70.57;99438.31;4880641;29;19928;-66
2022/05/03 03:05:17;;;;;;;;;;;;;;;11.72;70.37;99438.31;4880303;29;19924;-66
2022/05/03 03:07:53;;;;;;;;;;;;;;;11.73;70.24;99438.31;4880485;29;19957;-66
2022/05/03 03:10:23;;;;;;;;;;;;;;;11.75;70.57;99436.59;4880530;29;19928;-66
2022/05/03 03:12:54;;;;;;;;;;;;;;;11.79;70.37;99438.25;4880163;29;19950;-66
2022/05/03 03:15:28;;;;;;;;;;;;;;;11.85;70.22;99437.34;4880202;29;19924;-66
2022/05/03 03:17:58;;;;;;;;;;;;;;;11.91;70.10;99439.81;4880427;29;20359;-66
2022/05/03 03:20:28;;;;;;;;;;;;;;;11.97;69.79;99442.34;4880105;29;19980;-66
2022/05/03 03:22:58;;;;;;;;;;;;;;;11.92;70.07;99439.81;4880082;29;19930;-66
2022/05/03 03:25:27;;;;;;;;;;;;;;;11.93;69.91;99436.38;4880470;29;20015;-66
2022/05/03 03:27:57;;;;;;;;;;;;;;;11.98;70.08;99437.19;4879975;29;20389;-66
2022/05/03 03:30:26;;;;;;;;;;;;;;;12.03;69.80;99438.00;4880567;29;20339;-66
2022/05/03 03:32:56;;;;;;;;;;;;;;;12.08;69.53;99441.34;4880312;29;20434;-66
2022/05/03 03:35:25;;;;;;;;;;;;;;;12.12;69.38;99437.03;4879972;29;19956;-66
2022/05/03 03:37:57;;;;;;;;;;;;;;;12.13;69.81;99432.78;4883911;29;19967;-66
2022/05/03 03:40:27;;;;;;;;;;;;;;;12.12;69.60;99438.78;4883701;29;20018;-66
2022/05/03 03:42:56;;;;;;;;;;;;;;;12.08;69.97;99435.38;4883690;29;19976;-66
2022/05/03 03:45:26;;;;;;;;;;;;;;;12.12;70.02;99436.22;4883982;29;20022;-66
2022/05/03 03:47:55;;;;;;;;;;;;;;;12.12;69.94;99437.03;4883519;29;19928;-66
2022/05/03 03:50:25;;;;;;;;;;;;;;;12.15;70.10;99436.16;4884171;29;19923;-66
2022/05/03 03:52:54;;;;;;;;;;;;;;;12.14;70.22;99434.47;4883477;29;19956;-66
2022/05/03 03:55:23;;;;;;;;;;;;;;;12.12;70.33;99437.03;4882308;29;19923;-66
2022/05/03 03:57:54;;;;;;;;;;;;;;;12.10;70.58;99434.50;4867022;29;19976;-66
2022/05/03 04:00:23;;;;;;;;;;;;;;;12.13;70.70;99437.88;4883435;29;19930;-66
2022/05/03 04:02:52;;;;;;;;;;;;;;;12.15;70.46;99436.16;4883203;29;19984;-66
2022/05/03 04:05:22;;;;;;;;;;;;;;;12.23;70.02;99442.03;4883292;29;19924;-66
2022/05/03 04:07:51;;;;;;;;;;;;;;;12.28;69.77;99442.84;4883195;29;19970;-66
2022/05/03 04:10:20;;;;;;;;;;;;;;;12.31;69.67;99447.94;4883201;29;19924;-66
2022/05/03 04:12:49;;;;;;;;;;;;;;;12.34;69.39;99447.88;4883001;29;20002;-66
2022/05/03 04:15:19;;;;;;;;;;;;;;;12.39;69.39;99446.09;4883020;29;19967;-66
2022/05/03 04:17:48;;;;;;;;;;;;;;;12.41;69.10;99444.38;4883160;29;19976;-66
2022/05/03 04:20:18;;;;;;;;;;;;;;;12.46;69.00;99448.59;4883057;29;19943;-66
2022/05/03 04:22:47;;;;;;;;;;;;;;;12.46;68.76;99447.72;4883528;29;19923;-66
2022/05/03 04:25:15;;;;;;;;;;;;;;;12.47;68.58;99440.06;4882956;29;19928;-65
2022/05/03 04:27:44;;;;;;;;;;;;;;;12.47;68.20;99452.00;4883197;29;20374;-65
2022/05/03 04:30:13;;;;;;;;;;;;;;;12.50;67.83;99449.41;4883172;29;20002;-65
2022/05/03 04:32:44;;;;;;;;;;;;;;;12.52;67.42;99452.78;4883052;29;20035;-66
2022/05/03 04:35:13;;;;;;;;;;;;;;;12.57;67.05;99451.03;4883090;29;19977;-66
2022/05/03 04:37:41;;;;;;;;;;;;;;;12.60;66.97;99451.81;4882607;29;19980;-66
2022/05/03 04:40:10;;;;;;;;;;;;;;;12.64;66.81;99452.63;4882694;29;19924;-66
2022/05/03 04:42:46;;;;;;;;;;;;;;;12.67;66.70;99456.00;4882921;29;19978;-66
2022/05/03 04:45:14;;;;;;;;;;;;;;;12.70;66.66;99447.44;4883267;29;19924;-66
2022/05/03 04:47:44;;;;;;;;;;;;;;;12.74;66.85;99454.22;4882000;29;19931;-67
2022/05/03 04:50:13;;;;;;;;;;;;;;;12.75;66.62;99455.91;4882481;29;19935;-66
2022/05/03 04:52:41;;;;;;;;;;;;;;;12.74;66.43;99449.09;4882680;29;19947;-65
2022/05/03 04:55:10;;;;;;;;;;;;;;;12.73;66.54;99457.63;4882733;29;20359;-65
2022/05/03 04:57:39;;;;;;;;;;;;;;;12.77;66.45;99451.59;4882707;29;20362;-66
2022/05/03 05:00:08;;;;;;;;;;;;;;;12.78;66.56;99450.75;4882622;29;20085;-65
2022/05/03 05:02:37;;;;;;;;;;;;;;;12.80;66.26;99449.00;4882253;29;20338;-66
2022/05/03 05:05:08;;;;;;;;;;;;;;;12.85;66.13;99452.34;4882406;29;19928;-65
2022/05/03 05:07:37;;;;;;;;;;;;;;;12.93;66.10;99455.66;4882533;29;19923;-66
2022/05/03 05:12:44;;;;;;;;;;;;;;;13.07;65.87;99448.66;4882129;29;20383;-66
2022/05/03 05:15:12;;;;;;;;;;;;;;;13.08;65.56;99449.47;4882054;29;20256;-65
2022/05/03 05:17:42;;;;;;;;;;;;;;;13.12;65.74;99452.00;4882005;29;19959;-65
2022/05/03 05:20:12;;;;;;;;;;;;;;;13.16;65.59;99448.53;4882240;29;19995;-65
2022/05/03 05:22:42;;;;;;;;;;;;;;;13.19;65.40;99453.59;4882270;29;19923;-65
2022/05/03 05:25:31;;;;;;;;;;;;;;;13.18;65.70;99451.91;4882158;29;19923;-65
2022/05/03 05:27:59;;;;;;;;;;;;;;;13.23;65.56;99444.13;4882464;29;19923;-65
2022/05/03 05:30:28;;;;;;;;;;;;;;;13.27;66.11;99449.19;4881703;29;19923;-65
2022/05/03 05:32:56;;;;;;;;;;;;;;;13.34;66.11;99448.22;4881963;29;19923;-65
2022/05/03 05:35:26;;;;;;;;;;;;;;;13.42;66.14;99445.53;4881921;29;20294;-66
2022/05/03 05:37:55;;;;;;;;;;;;;;;13.50;66.18;99442.88;4881702;29;19924;-66
2022/05/03 05:40:23;;;;;;;;;;;;;;;13.61;66.10;99446.09;4881617;29;19932;-66
2022/05/03 05:42:52;;;;;;;;;;;;;;;13.67;66.06;99446.00;4880764;29;19924;-65
2022/05/03 05:45:21;;;;;;;;;;;;;;;13.60;64.99;99442.69;4865418;29;20370;-65
2022/05/03 05:47:49;;;;;;;;;;;;;;;13.63;65.02;99450.31;4881515;29;19927;-65
2022/05/03 05:50:18;;;;;;;;;;;;;;;13.70;64.22;99457.03;4881318;29;19966;-66
2022/05/03 05:55:26;;;;;;;;;;;;;;;13.91;63.40;99445.56;4881911;29;20485;-65
2022/05/03 05:57:55;;;;;;;;;;;;;;;14.00;62.96;99447.97;4881630;29;19923;-66
2022/05/03 06:00:24;;;;;;;;;;;;;;;14.07;62.84;99450.41;4881440;29;20100;-65
2022/05/03 06:02:52;;;;;;;;;;;;;;;14.17;62.84;99450.22;4881454;29;19947;-65
2022/05/03 06:05:21;;;;;;;;;;;;;;;14.29;62.31;99448.28;4881111;29;19924;-66
2022/05/03 06:07:52;;;;;;;;;;;;;;;14.37;62.40;99456.69;4881116;29;20371;-65
2022/05/03 06:10:24;;;;;;;;;;;;;;;14.39;61.69;99447.25;4881306;29;19924;-65
2022/05/03 06:12:53;;;;;;;;;;;;;;;14.49;61.17;99450.47;4881447;29;19928;-64
2022/05/03 06:15:21;;;;;;;;;;;;;;;14.55;61.33;99448.63;4864554;29;19972;-65
2022/05/03 06:17:50;;;;;;;;;;;;;;;14.58;60.36;99446.00;4881362;29;20442;-64
2022/05/03 06:20:19;;;;;;;;;;;;;;;14.67;60.24;99448.38;4881297;29;19930;-65
2022/05/03 06:22:48;;;;;;;;;;;;;;;14.80;59.83;99445.53;4881142;29;19923;-65
2022/05/03 06:25:18;;;;;;;;;;;;;;;14.90;59.15;99447.03;4879660;29;19924;-64
2022/05/03 06:27:46;;;;;;;;;;;;;;;15.07;59.15;99447.53;4880747;29;19930;-64
2022/05/03 06:30:15;;;;;;;;;;;;;;;15.24;58.99;99447.94;4880664;29;19924;-64
2022/05/03 06:32:45;;;;;;;;;;;;;;;15.29;58.36;99449.53;4880862;29;19988;-64
2022/05/03 06:35:16;;;;;;;;;;;;;;;15.39;58.13;99448.44;4880924;29;19964;-64
2022/05/03 06:37:45;;;;;;;;;;;;;;;15.47;58.02;99456.00;4880870;29;19931;-64
2022/05/03 06:40:13;;;;;;;;;;;;;;;15.55;57.93;99448.94;4880459;29;20370;-64
2022/05/03 06:42:44;;;;;;;;;;;;;;;15.65;57.62;99452.97;4880669;29;19923;-65
2022/05/03 06:45:12;;;;;;;;;;;;;;;15.79;57.29;99453.47;4880913;29;20331;-65
2022/05/03 06:47:45;;;;;;;;;;;;;;;15.94;56.82;99453.09;4880418;29;20014;-66
2022/05/03 06:50:13;;;;;;;;;;;;;;;16.01;56.42;99448.63;4880543;29;19923;-64
2022/05/03 06:52:42;;;;;;;;;;;;;;;16.12;56.18;99456.06;4880323;29;19924;-64
2022/05/03 06:55:11;;;;;;;;;;;;;;;16.14;56.10;99451.72;4880725;29;19924;-65
2022/05/03 06:57:40;;;;;;;;;;;;;;;16.22;56.37;99452.38;4880324;29;20279;-65
2022/05/03 07:00:11;;;;;;;;;;;;;;;16.34;55.75;99457.19;4879836;29;20295;-64
2022/05/03 07:02:39;;;;;;;;;;;;;;;16.41;55.71;99456.13;4880558;29;19970;-65
2022/05/03 07:05:08;;;;;;;;;;;;;;;16.53;55.56;99448.09;4879603;29;19923;-64
2022/05/03 07:08:02;;;;;;;;;;;;;;;16.67;55.33;99445.94;4880199;29;19972;-65
2022/05/03 07:10:33;;;;;;;;;;;;;;;16.84;55.04;99450.59;4879997;29;19978;-66
2022/05/03 07:13:02;;;;;;;;;;;;;;;17.01;54.46;99449.19;4880163;29;20056;-64
2022/05/03 07:15:33;;;;;;;;;;;;;;;17.08;54.23;99444.72;4880403;29;19923;-65
2022/05/03 07:23:19;;;;;;;;;;;;;;;17.64;53.69;99453.25;4861433;29;20291;-65
2022/05/03 07:25:48;;;;;;;;;;;;;;;17.73;53.31;99452.97;4862169;29;20256;-66
2022/05/03 07:28:17;;;;;;;;;;;;;;;17.99;53.39;99451.19;4861733;29;20366;-65
2022/05/03 07:30:47;;;;;;;;;;;;;;;18.25;53.47;99447.69;4861907;29;19928;-65
2022/05/03 07:33:15;;;;;;;;;;;;;;;18.32;52.83;99443.97;4861444;29;20014;-65
2022/05/03 07:35:44;;;;;;;;;;;;;;;18.38;51.51;99446.34;4869559;29;19987;-65
2022/05/03 07:38:13;;;;;;;;;;;;;;;18.46;50.76;99439.19;4879846;29;19962;-66
2022/05/03 07:40:41;;;;;;;;;;;;;;;18.62;50.39;99437.72;4880282;29;19924;-66
2022/05/03 07:43:10;;;;;;;;;;;;;;;18.72;49.94;99433.88;4880189;29;19924;-66
2022/05/03 07:45:38;;;;;;;;;;;;;;;18.91;49.97;99438.38;4879852;29;19924;-66
2022/05/03 07:48:09;;;;;;;;;;;;;;;19.01;49.50;99429.34;4880148;29;20311;-66
2022/05/03 07:50:38;;;;;;;;;;;;;;;19.31;49.23;99435.91;4880096;29;20335;-65
2022/05/03 07:53:07;;;;;;;;;;;;;;;19.37;48.41;99428.78;4863516;29;20293;-65
2022/05/03 07:55:35;;;;;;;;;;;;;;;19.44;47.91;99429.34;4880176;29;19971;-65
2022/05/03 07:58:04;;;;;;;;;;;;;;;19.55;47.28;99427.19;4879690;29;19924;-64
2022/05/03 08:00:35;;;;;;;;;;;;;;;19.63;46.37;99422.50;4881029;29;19924;-65
2022/05/03 08:03:04;;;;;;;;;;;;;;;19.86;46.36;99432.78;4898696;29;19952;-66
2022/05/03 08:05:34;;;;;;;;;;;;;;;19.90;46.13;99416.19;4898270;29;19923;-68
2022/05/03 08:08:03;;;;;;;;;;;;;;;20.14;45.64;99421.19;4898377;29;20005;-65
2022/05/03 08:10:31;;;;;;;;;;;;;;;20.26;45.22;99426.72;4898486;29;19972;-64
2022/05/03 08:13:00;;;;;;;;;;;;;;;20.45;44.72;99425.00;4896989;29;20010;-65
2022/05/03 08:15:28;;;;;;;;;;;;;;;20.52;44.36;99426.41;4898488;29;19924;-66
2022/05/03 08:17:57;;;;;;;;;;;;;;;20.60;43.82;99433.84;4898277;29;19971;-66
2022/05/03 08:20:26;;;;;;;;;;;;;;;20.77;43.74;99428.72;4881489;29;20293;-65
2022/05/03 08:23:00;;;;;;;;;;;;;;;20.81;43.38;99430.25;4899442;29;19927;-64
2022/05/03 08:25:29;;;;;;;;;;;;;;;20.85;43.76;99426.59;4902016;29;19923;-66
2022/05/03 08:27:58;;;;;;;;;;;;;;;20.77;43.79;99428.72;4901561;29;19928;-65
2022/05/03 08:30:26;;;;;;;;;;;;;;;20.86;44.30;99427.44;4901527;29;19924;-65
2022/05/03 08:32:55;;;;;;;;;;;;;;;21.00;44.81;99436.28;4901758;29;20370;-66
2022/05/03 08:35:24;;;;;;;;;;;;;;;20.95;45.51;99427.84;4901840;29;20018;-66
2022/05/03 08:43:12;;;;;;;;;;;;;;;20.92;44.04;99437.56;4863904;29;19924;-65
2022/05/03 08:45:45;;;;;;;;;;;;;;;21.01;44.29;99432.78;4864147;29;19953;-66
2022/05/03 08:48:16;;;;;;;;;;;;;;;21.17;44.49;99432.91;4847920;29;19924;-65
2022/05/03 08:50:46;;;;;;;;;;;;;;;21.37;44.95;99425.00;4864274;29;20291;-66
2022/05/03 08:53:16;;;;;;;;;;;;;;;21.40;44.35;99426.63;4863874;29;20023;-66
2022/05/03 08:55:47;;;;;;;;;;;;;;;21.28;43.88;99423.69;4877500;29;20454;-65
2022/05/03 08:58:17;;;;;;;;;;;;;;;21.19;44.68;99425.88;4882268;29;19928;-66
2022/05/03 09:00:46;;;;;;;;;;;;;;;21.27;45.71;99422.03;4874233;29;20431;-65
2022/05/03 09:03:15;;;;;;;;;;;;;;;21.29;45.27;99416.75;4865478;29;19947;-67
2022/05/03 09:05:47;;;;;;;;;;;;;;;21.51;45.29;99421.72;4863096;29;19924;-67
2022/05/03 09:08:21;;;;;;;;;;;;;;;21.71;44.68;99419.00;4863567;29;20330;-65
2022/05/03 09:10:53;;;;;;;;;;;;;;;21.75;44.75;99420.50;4863476;29;19931;-65
2022/05/03 09:13:43;;;;;;;;;;;;;;;21.88;45.18;99426.81;4863335;29;20003;-66
2022/05/03 09:16:13;;;;;;;;;;;;;;;21.87;45.20;99419.94;4864148;29;20348;-66
2022/05/03 09:18:42;;;;;;;;;;;;;;;22.01;45.88;99418.31;4863574;29;19976;-67
2022/05/03 09:24:01;;;;;;;;;;;;;;;22.19;42.53;99406.13;4873824;29;19931;-66
2022/05/03 09:26:31;;;;;;;;;;;;;;;22.08;41.00;99417.97;4871758;29;19959;-66
2022/05/03 09:29:01;;;;;;;;;;;;;;;22.05;41.87;99411.22;4871529;29;19930;-65
2022/05/03 09:31:31;;;;;;;;;;;;;;;22.22;42.56;99400.75;4871524;29;19924;-66
2022/05/03 09:34:01;;;;;;;;;;;;;;;22.38;42.29;99400.78;4870546;29;20014;-65
2022/05/03 09:36:41;;;;;;;;;;;;;;;22.45;41.72;99408.19;4871477;29;19931;-66
2022/05/03 09:39:30;;;;;;;;;;;;;;;22.33;41.75;99403.63;4872232;29;19972;-66
2022/05/03 09:42:11;;;;;;;;;;;;;;;22.38;41.92;99396.44;4872727;29;19996;-67
2022/05/03 09:44:52;;;;;;;;;;;;;;;22.40;41.15;99399.78;4872955;29;20454;-67
2022/05/03 09:47:22;;;;;;;;;;;;;;;22.50;40.65;99395.78;4872738;29;20339;-69
2022/05/03 09:49:51;;;;;;;;;;;;;;;22.64;39.16;99393.28;4871302;29;19956;-67
2022/05/03 09:52:27;;;;;;;;;;;;;;;22.58;38.53;99396.19;4874449;29;19935;-68
2022/05/03 09:55:04;;;;;;;;;;;;;;;22.68;38.72;99400.00;4874862;29;19980;-65
2022/05/03 09:57:34;;;;;;;;;;;;;;;22.76;37.80;99390.94;4862565;29;20023;-66
2022/05/03 10:00:05;;;;;;;;;;;;;;;22.88;36.46;99388.50;4862690;29;20002;-66
2022/05/03 10:02:42;;;;;;;;;;;;;;;22.94;37.46;99385.53;4861947;29;19986;-65
2022/05/03 10:05:16;;;;;;;;;;;;;;;23.03;38.14;99385.06;4863066;29;19966;-65
2022/05/03 10:07:45;;;;;;;;;;;;;;;23.06;37.07;99384.03;4861647;29;19971;-66
2022/05/03 10:10:15;;;;;;;;;;;;;;;23.09;36.40;99381.25;4862881;29;19972;-66
2022/05/03 10:12:45;;;;;;;;;;;;;;;23.18;36.06;99372.91;4862413;29;19924;-67
2022/05/03 10:20:35;;;;;;;;;;;;;;;23.35;36.84;99383.22;4862262;29;20415;-66
2022/05/03 10:20:46;;;;;;;;;;;;;;;23.35;37.99;99375.41;4862234;29;19963;-65
2022/05/03 10:23:20;;;;;;;;;;;;;;;23.22;37.25;99380.47;4862705;29;19924;-66
2022/05/03 10:25:52;;;;;;;;;;;;;;;23.46;37.51;99372.22;4879920;29;20397;-67
2022/05/03 10:28:21;;;;;;;;;;;;;;;23.63;37.39;99367.69;4880784;29;20371;-66
2022/05/03 10:31:01;;;;;;;;;;;;;;;23.81;37.36;99368.34;4880724;29;19923;-66
2022/05/03 10:33:40;;;;;;;;;;;;;;;23.95;37.60;99361.38;4880805;29;19963;-66
2022/05/03 10:36:21;;;;;;;;;;;;;;;23.96;36.37;99357.84;4881066;29;19927;-66
2022/05/03 10:38:51;;;;;;;;;;;;;;;23.93;36.52;99363.25;4880921;29;20015;-66
2022/05/03 10:41:24;;;;;;;;;;;;;;;23.96;37.41;99362.22;4881179;29;19931;-66
2022/05/03 10:43:52;;;;;;;;;;;;;;;23.97;37.04;99359.50;4870817;29;20395;-67
2022/05/03 10:46:22;;;;;;;;;;;;;;;24.04;37.65;99353.94;4880008;29;20381;-67
2022/05/03 10:49:02;;;;;;;;;;;;;;;24.09;39.14;99357.97;4880844;29;19939;-66
2022/05/03 10:51:31;;;;;;;;;;;;;;;24.37;39.58;99357.13;4880334;29;19923;-66
2022/05/03 10:54:03;;;;;;;;;;;;;;;24.56;38.00;99355.03;4880381;29;19980;-66
2022/05/03 10:56:32;;;;;;;;;;;;;;;24.68;36.92;99356.88;4880295;29;19930;-67
2022/05/03 10:59:10;;;;;;;;;;;;;;;24.69;35.74;99350.69;4881029;29;20349;-67
2022/05/03 11:01:50;;;;;;;;;;;;;;;24.78;36.25;99352.78;4864004;29;19979;-66
2022/05/03 11:04:18;;;;;;;;;;;;;;;24.77;36.64;99353.69;4878637;29;20022;-67
2022/05/03 11:06:49;;;;;;;;;;;;;;;24.69;36.97;99350.69;4878727;29;20367;-66
2022/05/03 11:09:28;;;;;;;;;;;;;;;24.57;37.21;99343.66;4880255;29;19939;-67
2022/05/03 11:12:07;;;;;;;;;;;;;;;24.80;38.32;99337.84;4880318;29;20413;-67
2022/05/03 11:14:48;;;;;;;;;;;;;;;24.81;37.97;99336.88;4880009;29;20015;-67
2022/05/03 11:17:18;;;;;;;;;;;;;;;24.80;38.26;99342.22;4879869;29;20018;-67
2022/05/03 11:19:58;;;;;;;;;;;;;;;24.66;37.86;99348.31;4879380;29;19928;-67
2022/05/03 11:22:29;;;;;;;;;;;;;;;24.30;37.72;99346.22;4880031;29;20382;-67
2022/05/03 11:25:05;;;;;;;;;;;;;;;24.02;37.33;99336.59;4880038;29;19932;-66
2022/05/03 11:27:35;;;;;;;;;;;;;;;24.02;37.55;99333.16;4879940;29;19924;-67
2022/05/03 11:30:05;;;;;;;;;;;;;;;23.96;37.56;99326.56;4883487;29;19962;-67
2022/05/03 11:32:37;;;;;;;;;;;;;;;23.95;38.19;99330.09;4879996;29;19924;-66
2022/05/03 11:35:07;;;;;;;;;;;;;;;24.04;38.08;99328.72;4880240;29;20374;-67
2022/05/03 11:37:36;;;;;;;;;;;;;;;24.11;36.58;99329.19;4880306;29;19923;-66
2022/05/03 11:40:06;;;;;;;;;;;;;;;24.35;36.67;99323.31;4870438;29;20339;-67
2022/05/03 11:42:40;;;;;;;;;;;;;;;24.40;36.88;99323.81;4879434;29;20030;-66
2022/05/03 11:45:10;;;;;;;;;;;;;;;24.34;36.38;99320.78;4880556;29;19923;-65
2022/05/03 11:47:41;;;;;;;;;;;;;;;23.97;36.02;99327.41;4879789;29;19924;-66
2022/05/03 11:50:11;;;;;;;;;;;;;;;23.64;35.96;99327.66;4880236;29;19924;-66
2022/05/03 11:58:04;;;;;;;;;;;;;;;22.99;35.43;99315.84;4868953;29;19928;-66
2022/05/03 12:00:44;;;;;;;;;;;;;;;22.95;34.73;99308.28;4864969;29;19959;-66
2022/05/03 12:03:13;;;;;;;;;;;;;;;22.89;34.40;99313.88;4866289;29;20378;-67
2022/05/03 12:05:56;;;;;;;;;;;;;;;22.86;35.11;99311.41;4884746;29;19924;-66
2022/05/03 12:08:26;;;;;;;;;;;;;;;22.90;35.62;99305.09;4865826;29;20324;-67
2022/05/03 12:10:56;;;;;;;;;;;;;;;23.02;35.35;99301.81;4879464;29;20003;-67
2022/05/03 12:13:31;;;;;;;;;;;;;;;23.12;36.28;99301.19;4871158;29;20265;-67
2022/05/03 12:16:11;;;;;;;;;;;;;;;23.20;37.03;99303.38;4871326;29;20355;-67
2022/05/03 12:18:41;;;;;;;;;;;;;;;23.24;38.07;99304.84;4872825;29;19924;-67
2022/05/03 12:21:11;;;;;;;;;;;;;;;23.24;37.63;99297.03;4864334;29;19924;-66
2022/05/03 12:23:44;;;;;;;;;;;;;;;23.38;35.37;99297.09;4864743;29;19924;-66
2022/05/03 12:29:26;;;;;;;;;;;;;;;23.56;34.20;99285.59;4847660;29;19930;-67
2022/05/03 12:31:55;;;;;;;;;;;;;;;23.55;33.82;99283.91;4864610;29;20027;-66
2022/05/03 12:34:24;;;;;;;;;;;;;;;23.59;32.93;99289.75;4864265;29;19971;-66
2022/05/03 12:37:02;;;;;;;;;;;;;;;23.60;32.28;99289.69;4864174;29;19955;-66
2022/05/03 12:39:35;;;;;;;;;;;;;;;23.41;32.38;99286.50;4862878;29;19924;-67
2022/05/03 12:42:10;;;;;;;;;;;;;;;23.38;32.54;99288.44;4879381;29;19924;-67
2022/05/03 12:44:51;;;;;;;;;;;;;;;23.46;32.52;99284.47;4880801;29;19924;-66
2022/05/03 12:47:21;;;;;;;;;;;;;;;23.49;32.37;99279.06;4882519;29;20410;-66
2022/05/03 12:49:50;;;;;;;;;;;;;;;23.37;34.21;99279.78;4880230;29;19924;-67
2022/05/03 12:52:20;;;;;;;;;;;;;;;23.26;35.84;99276.94;4882297;29;19928;-66
2022/05/03 12:54:48;;;;;;;;;;;;;;;23.14;35.40;99267.25;4882464;29;20026;-67
2022/05/03 12:59:55;;;;;;;;;;;;;;;23.08;36.08;99273.63;4865861;29;19924;-66
2022/05/03 13:02:27;;;;;;;;;;;;;;;23.05;35.72;99273.00;4865452;29;19927;-67
2022/05/03 13:04:55;;;;;;;;;;;;;;;22.98;37.81;99282.94;4890872;29;20293;-66
2022/05/03 13:07:24;;;;;;;;;;;;;;;22.99;37.90;99279.38;4900908;29;19979;-67
2022/05/03 13:09:53;;;;;;;;;;;;;;;22.99;38.40;99283.75;4897580;29;20381;-69
2022/05/03 13:12:22;;;;;;;;;;;;;;;22.82;38.75;99296.91;4878740;29;19923;-67
2022/05/03 13:14:51;;;;;;;;;;;;;;;22.63;40.55;99305.75;4877361;29;19923;-67
2022/05/03 13:17:19;;;;;;;;;;;;;;;22.42;41.42;99314.69;4882564;29;19947;-67
2022/05/03 13:19:49;;;;;;;;;;;;;;;22.20;42.74;99319.38;4882054;29;19923;-67
2022/05/03 13:22:19;;;;;;;;;;;;;;;22.03;44.77;99327.25;4878254;29;19960;-69
2022/05/03 13:24:47;;;;;;;;;;;;;;;21.77;46.27;99330.34;4864608;29;19976;-68
2022/05/03 13:27:15;;;;;;;;;;;;;;;21.48;46.04;99336.16;4882023;29;20068;-67
2022/05/03 13:29:44;;;;;;;;;;;;;;;20.81;49.28;99247.81;4881333;29;19931;-68
2022/05/03 13:32:12;;;;;;;;;;;;;;;20.76;49.03;99307.69;4877851;29;19924;-66
2022/05/03 13:34:41;;;;;;;;;;;;;;;20.37;46.66;99314.78;4871366;29;19930;-65
2022/05/03 13:42:27;;;;;;;;;;;;;;;19.54;50.76;99321.94;4881476;29;20033;-67
2022/05/03 13:44:57;;;;;;;;;;;;;;;19.37;52.69;99324.38;4877354;29;19950;-68
2022/05/03 13:47:26;;;;;;;;;;;;;;;19.27;54.10;99323.91;4869207;29;19924;-66
2022/05/03 13:49:55;;;;;;;;;;;;;;;19.31;56.27;99322.88;4863272;29;19930;-68
2022/05/03 13:52:26;;;;;;;;;;;;;;;19.30;56.38;99322.94;4877978;29;19930;-68
2022/05/03 13:54:55;;;;;;;;;;;;;;;19.37;56.65;99330.41;4881358;29;19967;-68
2022/05/03 13:57:23;;;;;;;;;;;;;;;19.71;57.07;99334.16;4881669;29;19979;-68